Time;durP1;ratioP1;P1;durP2;ratioP2;P2;SDS_P1;SDS_P2;PMS_P1;PMS_P2;Temp;Humidity;BMP_temperature;BMP_pressure;BME280_temperature;BME280_humidity;BME280_pressure;Samples;Min_cycle;Max_cycle;Signal;HPM_P1;HPM_P2
2021/09/28 00:00:27;;;;;;;11.35;5.70;;;;;;;14.14;87.90;101326.09;5074286;28;20603;-76
2021/09/28 00:02:53;;;;;;;15.68;5.40;;;;;;;14.15;88.32;101316.75;5076454;28;20063;-77
2021/09/28 00:05:18;;;;;;;13.85;6.15;;;;;;;14.16;88.31;101339.53;5077205;28;20036;-76
2021/09/28 00:07:44;;;;;;;13.73;6.05;;;;;;;14.16;88.38;101329.38;5083324;28;20036;-76
2021/09/28 00:10:10;;;;;;;16.73;6.45;;;;;;;14.15;88.68;101338.69;5073451;28;20028;-77
2021/09/28 00:12:36;;;;;;;18.98;6.57;;;;;;;14.15;88.64;101344.19;5076514;28;21181;-77
2021/09/28 00:15:01;;;;;;;26.33;7.28;;;;;;;14.16;89.05;101342.28;5082310;28;20552;-76
2021/09/28 00:17:27;;;;;;;20.40;7.20;;;;;;;14.16;89.39;101328.56;5082159;28;20042;-77
2021/09/28 00:19:52;;;;;;;23.10;6.68;;;;;;;14.16;89.33;101339.53;5077751;28;20032;-77
2021/09/28 00:22:18;;;;;;;14.23;6.28;;;;;;;14.13;89.62;101340.91;5079603;28;20031;-77
2021/09/28 00:24:43;;;;;;;15.07;6.43;;;;;;;14.13;89.88;101332.69;5082326;28;20036;-77
2021/09/28 00:27:08;;;;;;;16.50;6.90;;;;;;;14.14;90.07;101336.25;5079575;28;20036;-77
2021/09/28 00:29:34;;;;;;;14.98;6.15;;;;;;;14.16;90.22;101339.53;5082591;28;20052;-77
2021/09/28 00:31:59;;;;;;;15.40;6.93;;;;;;;14.16;90.38;101340.34;5084810;28;20367;-77
2021/09/28 00:34:26;;;;;;;14.52;6.70;;;;;;;14.16;90.09;101329.38;5088239;28;20046;-77
2021/09/28 00:36:51;;;;;;;18.63;6.63;;;;;;;14.18;90.34;101346.34;5079108;28;20043;-77
2021/09/28 00:39:17;;;;;;;14.73;6.53;;;;;;;14.20;90.41;101360.59;5068561;28;20024;-78
2021/09/28 00:41:42;;;;;;;16.33;6.60;;;;;;;14.20;90.54;101354.31;5079284;28;20488;-78
2021/09/28 00:44:07;;;;;;;24.90;6.90;;;;;;;14.18;90.60;101359.25;5079553;28;20048;-77
2021/09/28 00:46:33;;;;;;;18.50;6.95;;;;;;;14.18;90.76;101376.50;5079307;28;20164;-77
2021/09/28 00:48:59;;;;;;;18.65;7.03;;;;;;;14.20;91.07;101376.25;5076163;28;20024;-77
2021/09/28 00:51:25;;;;;;;14.35;6.95;;;;;;;14.21;91.06;101375.97;5079345;28;20032;-77
2021/09/28 00:53:52;;;;;;;12.45;6.80;;;;;;;14.25;91.23;101361.69;5078487;28;20051;-77
2021/09/28 00:56:18;;;;;;;13.13;6.28;;;;;;;14.28;91.30;101372.91;5082319;28;20043;-77
2021/09/28 00:58:43;;;;;;;12.73;6.03;;;;;;;14.30;91.55;101389.91;5075293;28;20016;-77
2021/09/28 01:01:11;;;;;;;16.70;7.47;;;;;;;14.33;91.72;101388.50;5078245;28;20385;-77
2021/09/28 01:03:37;;;;;;;12.07;6.90;;;;;;;14.34;91.75;101395.63;5086304;28;20890;-77
2021/09/28 01:06:02;;;;;;;16.45;7.30;;;;;;;14.36;91.95;101391.50;5076941;28;20020;-77
2021/09/28 01:08:28;;;;;;;17.38;7.50;;;;;;;14.38;92.07;101391.22;5076756;28;20072;-76
2021/09/28 01:10:53;;;;;;;13.65;6.32;;;;;;;14.41;92.17;101399.69;5078942;28;20032;-76
2021/09/28 01:13:19;;;;;;;11.48;6.95;;;;;;;14.44;92.27;101392.81;5077845;28;20051;-76
2021/09/28 01:16:03;;;;;;;17.42;7.03;;;;;;;14.46;92.46;101382.38;5078229;28;20040;-77
2021/09/28 01:18:30;;;;;;;14.75;7.57;;;;;;;14.47;92.30;101384.03;5083300;28;20080;-77
2021/09/28 01:20:56;;;;;;;18.70;7.93;;;;;;;14.50;92.46;101388.13;5075394;28;20035;-77
2021/09/28 01:23:22;;;;;;;16.77;7.32;;;;;;;14.52;92.66;101388.66;5082242;28;20043;-76
2021/09/28 01:25:47;;;;;;;15.25;7.97;;;;;;;14.53;92.71;101385.66;5081819;28;20027;-76
2021/09/28 01:28:12;;;;;;;13.90;7.30;;;;;;;14.56;92.98;101381.50;5060209;28;20028;-76
2021/09/28 01:30:38;;;;;;;18.27;7.90;;;;;;;14.58;93.22;101391.09;5079748;28;20525;-76
2021/09/28 01:33:03;;;;;;;15.00;7.10;;;;;;;14.64;93.41;101400.91;5075983;28;20070;-77
2021/09/28 01:35:29;;;;;;;20.25;7.75;;;;;;;14.69;93.61;101393.78;5074265;28;20028;-77
2021/09/28 01:37:54;;;;;;;19.83;8.50;;;;;;;14.71;93.82;101405.28;5081039;28;20036;-77
2021/09/28 01:40:20;;;;;;;16.13;7.88;;;;;;;14.72;93.83;101407.72;5075752;28;20069;-77
2021/09/28 01:42:45;;;;;;;12.80;6.78;;;;;;;14.75;94.05;101400.84;5076124;28;20477;-77
2021/09/28 01:45:11;;;;;;;14.77;7.35;;;;;;;14.76;94.25;101405.22;5078889;28;20067;-77
2021/09/28 01:47:36;;;;;;;17.80;7.85;;;;;;;14.77;94.50;101401.38;5075470;28;20078;-77
2021/09/28 01:50:03;;;;;;;19.40;8.23;;;;;;;14.78;94.82;101411.25;5075899;28;20066;-77
2021/09/28 01:52:29;;;;;;;16.60;8.55;;;;;;;14.81;94.90;101399.69;5082629;28;20029;-77
2021/09/28 01:54:54;;;;;;;19.67;8.48;;;;;;;14.84;94.89;101399.13;5078131;28;20086;-76
2021/09/28 01:57:20;;;;;;;18.33;8.98;;;;;;;14.87;94.96;101404.06;5081361;28;20031;-77
2021/09/28 01:59:45;;;;;;;26.45;9.45;;;;;;;14.90;95.17;101413.66;5077718;28;20026;-77
2021/09/28 02:02:11;;;;;;;23.25;8.93;;;;;;;14.92;94.98;101416.91;5073747;28;20036;-78
2021/09/28 02:04:36;;;;;;;24.23;7.25;;;;;;;14.88;94.84;101424.91;5077893;28;20028;-77
2021/09/28 02:07:01;;;;;;;18.48;6.90;;;;;;;14.81;94.66;101424.41;5086046;28;20436;-77
2021/09/28 02:09:27;;;;;;;15.93;5.60;;;;;;;14.73;94.34;101425.00;5080624;28;20043;-77
2021/09/28 02:11:52;;;;;;;13.00;4.80;;;;;;;14.67;94.17;101426.97;5072953;28;20031;-77
2021/09/28 02:14:19;;;;;;;14.05;4.85;;;;;;;14.63;94.18;101426.75;5074494;28;20055;-77
2021/09/28 02:16:45;;;;;;;16.13;4.45;;;;;;;14.58;94.01;101424.03;5077317;28;20024;-77
2021/09/28 02:19:11;;;;;;;19.30;5.53;;;;;;;14.55;94.14;101429.28;5074228;28;20085;-77
2021/09/28 02:21:36;;;;;;;13.63;4.60;;;;;;;14.52;93.92;101436.16;5078456;28;20021;-77
2021/09/28 02:24:02;;;;;;;10.90;4.63;;;;;;;14.49;93.97;101433.13;5084197;28;20023;-77
2021/09/28 02:26:27;;;;;;;18.75;5.78;;;;;;;14.47;93.85;101441.63;5086531;28;20591;-77
2021/09/28 02:28:53;;;;;;;16.23;5.80;;;;;;;14.45;93.78;101438.34;5078124;28;20032;-77
2021/09/28 02:31:18;;;;;;;18.23;6.10;;;;;;;14.46;93.78;101429.03;5085199;28;20073;-77
2021/09/28 02:33:44;;;;;;;15.45;5.28;;;;;;;14.47;93.86;101427.91;5077237;28;20381;-77
2021/09/28 02:36:09;;;;;;;14.30;5.18;;;;;;;14.49;93.84;101436.69;5069027;28;20024;-77
2021/09/28 02:38:35;;;;;;;22.80;6.05;;;;;;;14.49;93.77;101436.69;5078393;28;20032;-77
2021/09/28 02:41:01;;;;;;;13.15;4.75;;;;;;;14.51;93.81;101439.94;5078109;28;20032;-77
2021/09/28 02:43:27;;;;;;;13.60;4.50;;;;;;;14.50;93.60;101441.06;5074649;28;20064;-77
2021/09/28 02:45:52;;;;;;;12.38;3.97;;;;;;;14.52;93.62;101447.13;5082534;28;20033;-77
2021/09/28 02:48:17;;;;;;;13.05;4.32;;;;;;;14.53;93.58;101453.44;5075954;28;20432;-77
2021/09/28 02:50:43;;;;;;;14.88;4.78;;;;;;;14.53;93.39;101456.16;5081080;28;20381;-77
2021/09/28 02:53:10;;;;;;;14.40;4.93;;;;;;;14.53;93.46;101459.72;5077188;28;20032;-77
2021/09/28 02:55:35;;;;;;;19.65;5.50;;;;;;;14.56;93.46;101461.91;5080094;28;20400;-77
2021/09/28 02:58:01;;;;;;;12.45;5.38;;;;;;;14.57;93.29;101466.31;5077001;28;20020;-77
2021/09/28 03:00:27;;;;;;;12.18;5.38;;;;;;;14.59;93.58;101460.50;5082225;28;20497;-77
2021/09/28 03:02:52;;;;;;;12.80;5.38;;;;;;;14.62;93.22;101471.75;5082782;28;20473;-77
2021/09/28 03:05:17;;;;;;;18.42;5.65;;;;;;;14.62;93.23;101474.50;5075817;28;20430;-76
2021/09/28 03:07:43;;;;;;;16.17;5.47;;;;;;;14.64;93.20;101466.78;5076552;28;20060;-76
2021/09/28 03:10:08;;;;;;;11.75;5.53;;;;;;;14.66;93.28;101477.50;5078972;28;20021;-77
2021/09/28 03:12:34;;;;;;;12.95;5.15;;;;;;;14.67;93.50;101475.56;5074211;28;20028;-76
2021/09/28 03:14:59;;;;;;;18.38;5.32;;;;;;;14.65;93.40;101473.94;5075502;28;20532;-76
2021/09/28 03:17:25;;;;;;;15.48;5.78;;;;;;;14.67;93.33;101478.31;5077018;28;20021;-76
2021/09/28 03:19:52;;;;;;;16.88;5.60;;;;;;;14.68;93.51;101477.19;5081028;28;20447;-77
2021/09/28 03:22:18;;;;;;;18.58;5.75;;;;;;;14.67;93.59;101481.06;5081470;28;20036;-77
2021/09/28 03:24:45;;;;;;;11.30;5.05;;;;;;;14.68;93.43;101479.94;5076906;28;20560;-77
2021/09/28 03:27:10;;;;;;;12.20;5.43;;;;;;;14.66;93.75;101493.97;5074859;28;20406;-76
2021/09/28 03:29:35;;;;;;;13.45;6.22;;;;;;;14.65;93.77;101495.91;5081357;28;20024;-77
2021/09/28 03:32:01;;;;;;;18.15;5.32;;;;;;;14.64;93.52;101494.22;5078146;28;20032;-77
2021/09/28 03:34:26;;;;;;;12.25;4.32;;;;;;;14.62;93.80;101501.09;5075513;28;20037;-77
2021/09/28 03:36:52;;;;;;;10.18;4.20;;;;;;;14.58;93.74;101506.34;5076836;28;20024;-77
2021/09/28 03:39:17;;;;;;;10.60;4.90;;;;;;;14.55;93.63;101512.41;5075236;28;20025;-77
2021/09/28 03:41:44;;;;;;;13.98;4.25;;;;;;;14.54;93.77;101513.53;5079317;28;20025;-77
2021/09/28 03:44:10;;;;;;;13.50;4.88;;;;;;;14.54;93.79;101508.03;5074599;28;20056;-77
2021/09/28 03:46:35;;;;;;;12.52;4.25;;;;;;;14.54;93.75;101516.28;5074617;28;20389;-77
2021/09/28 03:49:00;;;;;;;11.95;4.70;;;;;;;14.53;93.64;101511.88;5078752;28;20028;-77
2021/09/28 03:51:26;;;;;;;10.60;3.67;;;;;;;14.52;93.89;101525.84;5082292;28;20077;-77
2021/09/28 03:53:52;;;;;;;8.30;3.53;;;;;;;14.50;93.72;101520.63;5079485;28;20374;-77
2021/09/28 03:56:21;;;;;;;12.00;3.78;;;;;;;14.46;93.46;101521.47;5083421;28;20434;-76
2021/09/28 03:58:47;;;;;;;11.30;4.35;;;;;;;14.45;93.48;101517.91;5088425;28;20388;-77
2021/09/28 04:01:13;;;;;;;11.63;3.63;;;;;;;14.44;93.53;101519.03;5083851;28;20035;-77
2021/09/28 04:03:41;;;;;;;9.82;3.47;;;;;;;14.44;93.65;101519.03;5084581;28;20024;-77
2021/09/28 04:06:07;;;;;;;12.18;3.90;;;;;;;14.42;93.57;101526.72;5080233;28;20037;-77
2021/09/28 04:08:34;;;;;;;12.15;3.63;;;;;;;14.39;93.44;101525.34;5085584;28;20031;-76
2021/09/28 04:10:59;;;;;;;9.95;3.60;;;;;;;14.38;93.27;101531.94;5080157;28;20028;-77
2021/09/28 04:13:25;;;;;;;8.60;2.72;;;;;;;14.39;93.35;101525.34;5081813;28;20031;-77
2021/09/28 04:15:52;;;;;;;9.60;3.47;;;;;;;14.39;93.14;101530.84;5087823;28;20032;-77
2021/09/28 04:18:17;;;;;;;10.80;2.92;;;;;;;14.42;93.32;101526.72;5088108;28;20490;-77
2021/09/28 04:20:43;;;;;;;9.60;2.85;;;;;;;14.42;93.27;101534.94;5086848;28;20032;-77
2021/09/28 04:23:09;;;;;;;13.18;3.03;;;;;;;14.41;93.06;101525.88;5082351;28;20073;-77
2021/09/28 04:25:35;;;;;;;10.35;3.08;;;;;;;14.41;93.06;101533.31;5082385;28;20040;-77
2021/09/28 04:28:00;;;;;;;12.70;3.17;;;;;;;14.40;92.90;101535.25;5089604;28;20032;-77
2021/09/28 04:30:25;;;;;;;13.60;3.13;;;;;;;14.39;92.98;101535.50;5081016;28;20462;-76
2021/09/28 04:32:51;;;;;;;12.50;3.25;;;;;;;14.38;92.88;101536.63;5088696;28;20039;-76
2021/09/28 04:35:16;;;;;;;14.38;2.65;;;;;;;14.38;92.95;101544.84;5078450;28;20050;-76
2021/09/28 04:37:42;;;;;;;11.65;2.95;;;;;;;14.39;93.06;101557.44;5085908;28;20016;-76
2021/09/28 04:40:07;;;;;;;12.85;2.70;;;;;;;14.40;92.83;101548.09;5085765;28;20027;-76
2021/09/28 04:42:33;;;;;;;10.35;3.05;;;;;;;14.41;93.05;101552.50;5080006;28;20170;-76
2021/09/28 04:44:58;;;;;;;13.93;2.83;;;;;;;14.42;92.95;101557.69;5082321;28;20032;-76
2021/09/28 04:47:24;;;;;;;13.38;3.03;;;;;;;14.42;93.00;101554.16;5076583;28;20114;-77
2021/09/28 04:49:49;;;;;;;8.93;3.20;;;;;;;14.42;93.19;101560.44;5057549;28;20039;-78
2021/09/28 04:52:14;;;;;;;13.77;3.20;;;;;;;14.41;93.06;101569.78;5065741;28;20028;-77
2021/09/28 04:54:40;;;;;;;14.20;2.85;;;;;;;14.44;93.24;101576.63;5078780;28;20028;-77
2021/09/28 04:57:05;;;;;;;12.48;3.03;;;;;;;14.44;93.05;101582.94;5092449;28;20036;-77
2021/09/28 04:59:32;;;;;;;10.45;2.97;;;;;;;14.45;93.21;101578.28;5085997;28;20063;-77
2021/09/28 05:01:58;;;;;;;10.60;3.25;;;;;;;14.44;93.19;101582.94;5082836;28;20028;-77
2021/09/28 05:04:23;;;;;;;13.95;3.65;;;;;;;14.45;93.25;101583.75;5080068;28;20070;-77
2021/09/28 05:06:49;;;;;;;10.98;4.10;;;;;;;14.45;93.44;101583.75;5083025;28;20024;-78
2021/09/28 05:09:14;;;;;;;19.42;4.15;;;;;;;14.42;93.36;101590.63;5083351;28;20047;-77
2021/09/28 05:11:39;;;;;;;21.92;3.90;;;;;;;14.41;93.02;101593.66;5084189;28;20469;-77
2021/09/28 05:14:05;;;;;;;20.17;4.13;;;;;;;14.37;92.78;101598.06;5079988;28;20039;-77
2021/09/28 05:16:31;;;;;;;20.75;3.83;;;;;;;14.33;92.61;101597.81;5084771;28;20020;-76
2021/09/28 05:18:57;;;;;;;19.90;3.67;;;;;;;14.30;92.77;101603.84;5078202;28;20038;-79
2021/09/28 05:21:22;;;;;;;21.65;3.47;;;;;;;14.29;92.61;101599.44;5079237;28;20036;-81
2021/09/28 05:23:49;;;;;;;20.48;3.33;;;;;;;14.28;92.10;101597.00;5078799;28;20027;-78
2021/09/28 05:26:14;;;;;;;16.88;3.20;;;;;;;14.26;92.07;101607.41;5085539;28;20111;-77
2021/09/28 05:28:40;;;;;;;20.27;3.00;;;;;;;14.25;92.07;101611.28;5080712;28;20141;-78
2021/09/28 05:31:05;;;;;;;17.30;3.17;;;;;;;14.24;91.96;101615.09;5080951;28;20076;-79
2021/09/28 05:33:31;;;;;;;22.58;3.20;;;;;;;14.24;91.66;101615.09;5078564;28;20026;-78
2021/09/28 05:35:56;;;;;;;22.75;3.33;;;;;;;14.24;91.91;101609.59;5081262;28;20028;-78
2021/09/28 05:38:22;;;;;;;16.92;3.20;;;;;;;14.24;91.45;101617.84;5088452;28;20034;-79
2021/09/28 05:40:49;;;;;;;17.50;3.17;;;;;;;14.23;91.28;101618.94;5078433;28;20028;-77
2021/09/28 05:43:14;;;;;;;19.42;3.80;;;;;;;14.24;91.30;101620.59;5082183;28;20093;-78
2021/09/28 05:45:39;;;;;;;22.67;3.20;;;;;;;14.23;91.31;101618.94;5075182;28;20027;-78
2021/09/28 05:48:05;;;;;;;19.63;3.10;;;;;;;14.21;90.95;101628.28;5078270;28;20125;-78
2021/09/28 05:50:30;;;;;;;15.43;2.55;;;;;;;14.23;90.87;101635.41;5073989;28;20390;-78
2021/09/28 05:52:56;;;;;;;18.23;3.35;;;;;;;14.23;90.80;101640.88;5081713;28;20093;-77
2021/09/28 05:55:22;;;;;;;19.42;3.22;;;;;;;14.21;90.57;101639.25;5084626;28;20032;-77
2021/09/28 05:57:48;;;;;;;16.98;3.40;;;;;;;14.21;90.15;101639.25;5083211;28;20024;-77
2021/09/28 06:00:17;;;;;;;23.13;2.70;;;;;;;14.20;90.19;101645.81;5071377;28;20037;-78
2021/09/28 06:02:42;;;;;;;19.65;3.28;;;;;;;14.20;89.92;101656.78;5078274;28;20362;-78
2021/09/28 06:05:08;;;;;;;18.95;3.42;;;;;;;14.21;89.79;101655.72;5077302;28;20093;-79
2021/09/28 06:07:33;;;;;;;14.10;2.90;;;;;;;14.23;89.63;101657.34;5076239;28;20146;-78
2021/09/28 06:09:59;;;;;;;14.70;3.05;;;;;;;14.25;89.50;101660.63;5075494;28;20016;-78
2021/09/28 06:12:25;;;;;;;19.85;3.47;;;;;;;14.26;89.50;101665.03;5073579;28;20028;-78
2021/09/28 06:14:50;;;;;;;15.80;3.67;;;;;;;14.28;89.31;101666.38;5077903;28;20031;-79
2021/09/28 06:17:15;;;;;;;16.70;2.88;;;;;;;14.29;89.42;101672.69;5073134;28;20036;-78
2021/09/28 06:19:41;;;;;;;17.98;3.78;;;;;;;14.31;89.04;101675.97;5077685;28;20016;-78
2021/09/28 06:22:06;;;;;;;16.98;2.95;;;;;;;14.34;89.21;101675.44;5075763;28;20035;-79
2021/09/28 06:24:33;;;;;;;17.55;3.42;;;;;;;14.35;89.10;101677.06;5079418;28;20469;-78
2021/09/28 06:27:00;;;;;;;20.27;3.55;;;;;;;14.36;88.91;101679.53;5077539;28;20107;-78
2021/09/28 06:29:25;;;;;;;19.30;3.05;;;;;;;14.38;88.96;101682.03;5079843;28;20544;-78
2021/09/28 06:31:51;;;;;;;16.40;3.30;;;;;;;14.37;88.71;101691.31;5077518;28;20168;-78
2021/09/28 06:34:16;;;;;;;20.10;3.45;;;;;;;14.38;88.36;101695.72;5080897;28;20023;-78
2021/09/28 06:36:43;;;;;;;16.70;3.08;;;;;;;14.38;88.17;101699.28;5076664;28;20016;-77
2021/09/28 06:39:08;;;;;;;23.38;3.75;;;;;;;14.37;88.07;101696.81;5079980;28;20385;-79
2021/09/28 06:41:35;;;;;;;24.85;3.58;;;;;;;14.36;87.86;101703.41;5078321;28;20020;-79
2021/09/28 06:44:05;;;;;;;16.88;2.75;;;;;;;14.36;87.86;101700.66;5076498;28;20044;-79
2021/09/28 06:46:30;;;;;;;13.93;3.50;;;;;;;14.34;87.66;101702.84;5059295;28;20020;-79
2021/09/28 06:48:56;;;;;;;14.88;2.45;;;;;;;14.35;87.62;101709.97;5059825;28;20355;-79
2021/09/28 06:51:21;;;;;;;17.13;3.65;;;;;;;14.34;87.46;101702.84;5078077;28;20035;-79
2021/09/28 06:53:47;;;;;;;18.88;3.25;;;;;;;14.36;88.05;101708.91;5077760;28;20042;-79
2021/09/28 06:56:13;;;;;;;24.27;3.33;;;;;;;14.37;87.40;101708.59;5072936;28;20034;-79
2021/09/28 06:58:38;;;;;;;25.25;3.72;;;;;;;14.38;87.35;101714.94;5072566;28;20024;-79
2021/09/28 07:01:04;;;;;;;19.85;2.67;;;;;;;14.39;87.36;101717.38;5070925;28;20861;-80
2021/09/28 07:03:30;;;;;;;14.80;2.70;;;;;;;14.41;87.12;101725.34;5072316;28;20480;-80
2021/09/28 07:05:58;;;;;;;19.10;2.85;;;;;;;14.44;87.00;101727.53;5070657;28;20028;-78
2021/09/28 07:08:23;;;;;;;12.63;3.13;;;;;;;14.46;86.90;101730.84;5071651;28;20040;-79
2021/09/28 07:10:48;;;;;;;16.08;3.05;;;;;;;14.47;86.92;101740.69;5070643;28;20027;-79
2021/09/28 07:13:14;;;;;;;19.75;3.05;;;;;;;14.49;86.54;101748.69;5056404;28;20705;-79
2021/09/28 07:15:39;;;;;;;19.25;3.72;;;;;;;14.48;86.50;101749.75;5069740;28;20722;-80
2021/09/28 07:18:05;;;;;;;13.18;2.47;;;;;;;14.49;86.21;101754.97;5071174;28;20038;-79
2021/09/28 07:20:31;;;;;;;17.27;2.88;;;;;;;14.49;86.05;101760.47;5069914;28;20024;-80
2021/09/28 07:22:56;;;;;;;15.07;2.67;;;;;;;14.51;85.87;101761.00;5072567;28;20050;-79
2021/09/28 07:25:22;;;;;;;16.42;2.15;;;;;;;14.54;85.76;101756.91;5075240;28;20024;-79
2021/09/28 07:27:47;;;;;;;16.80;2.58;;;;;;;14.56;85.63;101755.53;5075602;28;20023;-78
2021/09/28 07:30:13;;;;;;;19.80;3.40;;;;;;;14.59;85.64;101751.41;5080575;28;20488;-79
2021/09/28 07:32:38;;;;;;;19.75;3.33;;;;;;;14.59;85.31;101765.13;5082944;28;20028;-89
2021/09/28 07:35:05;;;;;;;11.52;2.15;;;;;;;14.62;85.33;101765.41;5080324;28;20031;-88
2021/09/28 07:37:31;;;;;;;18.50;3.50;;;;;;;14.65;85.18;101762.13;5085350;28;20026;-88
2021/09/28 07:39:57;;;;;;;19.73;2.35;;;;;;;14.70;84.90;101765.94;5077094;28;20032;-88
2021/09/28 07:42:24;;;;;;;10.85;1.92;;;;;;;14.75;84.78;101752.22;5085057;28;20036;-89
2021/09/28 07:44:51;;;;;;;12.57;2.65;;;;;;;14.79;84.53;101761.53;5078481;28;20508;-88
2021/09/28 07:47:16;;;;;;;18.30;3.38;;;;;;;14.85;84.50;101768.66;5077387;28;20539;-89
2021/09/28 07:49:42;;;;;;;15.25;3.25;;;;;;;14.85;84.13;101771.41;5074532;28;20028;-88
2021/09/28 07:52:07;;;;;;;14.00;2.25;;;;;;;14.83;84.08;101784.59;5070589;28;20084;-78
2021/09/28 07:54:34;;;;;;;18.45;2.67;;;;;;;14.85;83.96;101785.13;5091093;28;20031;-79
2021/09/28 07:57:03;;;;;;;18.65;2.72;;;;;;;14.86;83.87;101784.03;5077310;28;20035;-78
2021/09/28 07:59:28;;;;;;;22.05;2.72;;;;;;;14.91;83.66;101794.19;5074089;28;20024;-78
2021/09/28 08:01:53;;;;;;;13.90;2.72;;;;;;;14.92;83.56;101802.13;5079523;28;20039;-79
2021/09/28 08:04:20;;;;;;;13.65;2.28;;;;;;;14.95;83.30;101787.88;5073464;28;20048;-78
2021/09/28 08:06:47;;;;;;;13.45;3.10;;;;;;;14.97;83.01;101804.84;5076900;28;20032;-78
2021/09/28 08:09:13;;;;;;;13.45;2.05;;;;;;;14.99;82.67;101805.41;5096034;28;20032;-78
2021/09/28 08:11:38;;;;;;;14.57;2.78;;;;;;;15.04;82.59;101810.91;5083289;28;20028;-79
2021/09/28 08:14:04;;;;;;;17.05;1.80;;;;;;;15.06;82.33;101808.69;5074358;28;20090;-77
2021/09/28 08:16:30;;;;;;;12.50;2.42;;;;;;;15.09;82.11;101802.66;5077055;28;20457;-77
2021/09/28 08:18:56;;;;;;;10.52;2.00;;;;;;;15.14;82.04;101815.56;5082426;28;20637;-77
2021/09/28 08:21:21;;;;;;;15.07;1.98;;;;;;;15.16;81.78;101812.50;5072681;28;20040;-77
2021/09/28 08:23:47;;;;;;;11.65;1.80;;;;;;;15.19;81.53;101811.94;5062617;28;20432;-77
2021/09/28 08:29:09;;;;;;;12.55;1.52;;;;;;;15.24;81.22;101812.75;5078912;28;20077;-78
2021/09/28 08:31:35;;;;;;;7.70;1.88;;;;;;;15.31;80.95;101824.28;5077359;28;20513;-78
2021/09/28 08:34:01;;;;;;;6.53;2.30;;;;;;;15.30;79.97;101830.03;5084081;28;20036;-78
2021/09/28 08:36:26;;;;;;;11.82;1.65;;;;;;;15.30;79.66;101830.03;5078005;28;20051;-78
2021/09/28 08:38:52;;;;;;;8.27;1.80;;;;;;;15.25;78.85;101828.16;5080544;28;20027;-78
2021/09/28 08:41:17;;;;;;;7.18;1.25;;;;;;;15.30;78.53;101835.53;5083401;28;20032;-78
2021/09/28 08:43:42;;;;;;;13.10;2.00;;;;;;;15.34;78.14;101835.81;5070813;28;20504;-79
2021/09/28 08:46:08;;;;;;;9.68;1.85;;;;;;;15.33;77.99;101840.47;5084337;28;20040;-78
2021/09/28 08:48:33;;;;;;;10.23;1.85;;;;;;;15.32;77.29;101845.13;5078805;28;20031;-78
2021/09/28 08:50:59;;;;;;;9.60;1.85;;;;;;;15.33;77.35;101848.69;5077088;28;20050;-78
2021/09/28 08:53:24;;;;;;;17.52;2.97;;;;;;;15.30;77.32;101857.50;5083164;28;20392;-78
2021/09/28 08:55:49;;;;;;;6.80;2.08;;;;;;;15.25;77.44;101849.28;5082043;28;20427;-78
2021/09/28 08:58:20;;;;;;;9.98;2.50;;;;;;;15.26;77.60;101851.75;5077910;28;20547;-78
2021/09/28 09:00:45;;;;;;;8.70;2.08;;;;;;;15.30;77.91;101852.88;5084620;28;20042;-78
2021/09/28 09:03:30;;;;;;;13.07;2.97;;;;;;;15.30;77.84;101852.00;5080156;28;20497;-78
2021/09/28 09:06:00;;;;;;;11.85;1.75;;;;;;;15.28;77.91;101863.31;5078281;28;20481;-78
2021/09/28 09:08:27;;;;;;;18.50;2.50;;;;;;;15.22;78.13;101855.34;5075353;28;20186;-79
2021/09/28 09:11:06;;;;;;;10.48;1.98;;;;;;;15.14;78.20;101866.88;5080102;28;20032;-78
2021/09/28 09:13:39;;;;;;;11.10;2.42;;;;;;;15.14;78.06;101864.16;5077523;28;20094;-79
2021/09/28 09:16:06;;;;;;;9.32;2.75;;;;;;;15.15;78.15;101865.81;5079038;28;20252;-78
2021/09/28 09:18:35;;;;;;;14.27;2.58;;;;;;;15.16;78.04;101872.94;5084192;28;20023;-79
2021/09/28 09:21:02;;;;;;;12.48;2.38;;;;;;;15.21;78.26;101881.19;5079226;28;20103;-78
2021/09/28 09:23:36;;;;;;;11.73;2.22;;;;;;;15.24;78.38;101875.13;5077138;28;20050;-78
2021/09/28 09:26:04;;;;;;;11.43;2.28;;;;;;;15.25;78.34;101883.09;5073270;28;20151;-79
2021/09/28 09:28:31;;;;;;;16.40;2.80;;;;;;;15.26;78.46;101884.72;5075374;28;20967;-79
2021/09/28 09:31:09;;;;;;;11.00;2.00;;;;;;;15.27;78.43;101891.03;5079288;28;20385;-79
2021/09/28 09:33:34;;;;;;;11.07;2.65;;;;;;;15.27;78.36;101893.78;5075220;28;20100;-80
2021/09/28 09:36:00;;;;;;;13.98;3.35;;;;;;;15.29;78.26;101888.84;5078663;28;20015;-78
2021/09/28 09:38:27;;;;;;;17.80;2.75;;;;;;;15.28;78.24;101892.72;5078556;28;20043;-80
2021/09/28 09:40:52;;;;;;;14.45;2.45;;;;;;;15.29;78.16;101897.91;5074991;28;20031;-81
2021/09/28 09:43:29;;;;;;;12.57;2.67;;;;;;;15.32;78.11;101893.78;5076760;28;20451;-82
2021/09/28 09:46:18;;;;;;;18.02;3.28;;;;;;;15.31;78.06;101898.47;5080188;28;20016;-81
2021/09/28 09:48:44;;;;;;;9.10;2.85;;;;;;;15.36;78.25;101900.38;5070592;28;20051;-81
2021/09/28 09:51:12;;;;;;;10.80;2.15;;;;;;;15.42;77.87;101904.75;5078719;28;20065;-81
2021/09/28 09:53:51;;;;;;;12.45;2.65;;;;;;;15.46;78.05;101903.06;5075938;28;20032;-82
2021/09/28 09:56:18;;;;;;;14.13;2.83;;;;;;;15.49;77.94;101901.69;5079928;28;20020;-80
2021/09/28 09:58:44;;;;;;;14.63;3.22;;;;;;;15.51;77.89;101910.50;5072906;28;20023;-81
2021/09/28 10:01:10;;;;;;;11.60;2.17;;;;;;;15.57;77.83;101906.63;5077346;28;20200;-81
2021/09/28 10:03:38;;;;;;;13.98;2.97;;;;;;;15.61;77.74;101907.72;5075796;28;20492;-82
2021/09/28 10:06:05;;;;;;;13.90;2.90;;;;;;;15.64;77.62;101901.66;5072264;28;20127;-82
2021/09/28 10:08:31;;;;;;;15.75;3.40;;;;;;;15.68;77.48;101901.91;5073750;28;20047;-82
2021/09/28 10:10:57;;;;;;;9.82;1.98;;;;;;;15.66;77.18;101915.09;5077949;28;20059;-79
2021/09/28 10:13:52;;;;;;;13.02;2.40;;;;;;;15.67;77.18;101919.50;5060638;28;20032;-80
2021/09/28 10:16:33;;;;;;;13.45;2.35;;;;;;;15.72;77.03;101914.03;5077440;28;20023;-80
2021/09/28 10:19:00;;;;;;;13.45;3.00;;;;;;;15.78;77.06;101909.34;5076959;28;20510;-80
2021/09/28 10:21:35;;;;;;;20.27;3.45;;;;;;;15.81;77.03;101917.84;5073798;28;20125;-80
2021/09/28 10:24:35;;;;;;;13.80;2.33;;;;;;;15.84;76.98;101921.94;5072188;28;20035;-80
2021/09/28 10:27:03;;;;;;;11.30;2.60;;;;;;;15.88;76.93;101923.88;5063058;28;20122;-80
2021/09/28 10:29:37;;;;;;;18.58;3.22;;;;;;;15.87;76.73;101924.94;5071725;28;20058;-81
2021/09/28 10:32:23;;;;;;;19.65;2.83;;;;;;;15.98;76.66;101934.81;5073395;28;20035;-82
2021/09/28 10:35:01;;;;;;;10.98;1.95;;;;;;;16.06;76.65;101932.56;5062376;28;20074;-81
2021/09/28 10:37:47;;;;;;;12.98;2.38;;;;;;;16.07;76.24;101931.47;5074402;28;20031;-82
2021/09/28 10:40:17;;;;;;;16.25;2.30;;;;;;;16.08;76.06;101927.63;5071354;28;20089;-81
2021/09/28 10:43:00;;;;;;;11.43;2.50;;;;;;;16.12;76.10;101934.19;5072875;28;20032;-81
2021/09/28 10:45:28;;;;;;;12.93;3.33;;;;;;;16.22;75.87;101939.66;5073014;28;20071;-81
2021/09/28 10:47:58;;;;;;;7.70;1.85;;;;;;;16.30;75.54;101936.28;5072125;28;20126;-81
2021/09/28 10:50:27;;;;;;;15.05;2.70;;;;;;;16.40;75.53;101941.75;5070800;28;20377;-80
2021/09/28 10:52:59;;;;;;;15.18;2.40;;;;;;;16.51;75.36;101936.19;5073484;28;20077;-80
2021/09/28 10:55:29;;;;;;;15.20;2.50;;;;;;;16.53;75.04;101945.81;5081960;28;20047;-80
2021/09/28 10:57:58;;;;;;;11.95;3.47;;;;;;;16.58;75.09;101944.91;5085677;28;20066;-81
2021/09/28 11:00:25;;;;;;;15.73;3.35;;;;;;;16.56;74.66;101949.88;5083187;28;20432;-81
2021/09/28 11:02:51;;;;;;;13.77;2.40;;;;;;;16.62;74.80;101944.06;5057200;28;20437;-81
2021/09/28 11:05:32;;;;;;;14.98;2.47;;;;;;;16.79;74.86;101954.72;5075725;28;20031;-81
2021/09/28 11:07:58;;;;;;;16.92;3.17;;;;;;;16.90;74.58;101954.63;5071962;28;20548;-81
2021/09/28 11:10:23;;;;;;;16.70;2.20;;;;;;;16.96;74.52;101964.50;5073159;28;20028;-81
2021/09/28 11:12:49;;;;;;;12.98;2.30;;;;;;;17.00;74.33;101960.88;5072077;28;20394;-82
2021/09/28 11:15:18;;;;;;;14.85;2.05;;;;;;;17.02;73.85;101963.34;5072212;28;20039;-81
2021/09/28 11:17:45;;;;;;;14.00;2.63;;;;;;;17.03;73.96;101974.09;5091929;28;20378;-81